METAR Data
IDs: Format: Raw Decoded Include TAF

Data at: 0738 UTC 23 Feb 2019

PAHL 230656Z AUTO 11008KT 10SM OVC060 M07/M11 A3025 RMK AO2 SNE24 SLP253 P0000 T10721111 FZRANO
PAHL 230456Z AUTO 10008KT 9SM -SN OVC039 M07/M11 A3025 RMK AO2 SLP254 P0000 T10721111 FZRANO
PAHL 230356Z AUTO 09007KT 9SM -SN OVC039 M07/M11 A3025 RMK AO2 SLP252 P0000 T10721111 FZRANO
PAHL 230256Z AUTO 10006KT 9SM -SN OVC048 M07/M11 A3025 RMK AO2 SNB02 SLP252 P0000 60000 T10721111 58008 FZRANO
PAHL 230156Z AUTO 09006KT 10SM OVC060 M07/M11 A3026 RMK AO2 SLP256 T10721111 FZRANO
PAHL 230056Z AUTO 10006KT 10SM BKN065 BKN075 M07/M11 A3026 RMK AO2 SLP258 T10721111 FZRANO
PAHL 222356Z AUTO 07005KT 10SM FEW080 M09/M13 A3027 RMK AO2 SLP261 60000 T10941133 11094 21122 58006 FZRANO
PAHL 222256Z AUTO 06005KT 10SM SCT075 M11/M15 A3028 RMK AO2 SLP264 T11111150 FZRANO
PAHL 222156Z AUTO 07003KT 10SM OVC045 M12/M16 A3029 RMK AO2 SLP267 T11171156 FZRANO
PAHL 222056Z AUTO 06005KT 10SM OVC045 M12/M16 A3029 RMK AO2 SNB08E36 SLP266 P0000 60000 T11221156 53010 FZRANO
PAHL 222012Z AUTO 06006KT 10SM -SN SCT013 OVC045 M12/M15 A3028 RMK AO2 SNB08 P0000 FZRANO
PAHL 221956Z AUTO 06005KT 10SM OVC013 M11/M14 A3028 RMK AO2 SLP264 T11111144 FZRANO
PAHL 221856Z AUTO 06005KT 10SM OVC013 M12/M15 A3027 RMK AO2 SLP260 T11171150 FZRANO
PAHL 221807Z AUTO 10004KT 10SM OVC013 M12/M14 A3026 RMK AO2 FZRANO
PAHL 221756Z AUTO 08005KT 10SM OVC015 M12/M14 A3026 RMK AO2 SNE39 SLP257 P0000 60000 T11171144 11117 21128 55003 FZRANO
PAHL 221656Z AUTO 07005KT 9SM -SN OVC015 M13/M15 A3025 RMK AO2 SLP256 P0000 T11281150 FZRANO
PAHL 221556Z AUTO 06005KT 9SM -SN OVC015 M12/M15 A3026 RMK AO2 SNB14 SLP259 P0000 T11221150 FZRANO
PAHL 221519Z AUTO 07003KT 9SM -SN OVC015 M12/M15 A3026 RMK AO2 SNB14 P0000 FZRANO
PAHL 221508Z AUTO 07003KT 10SM BKN013 BKN018 OVC043 M12/M15 A3026 RMK AO2 FZRANO
PAHL 221456Z AUTO 00000KT 10SM FEW017 OVC043 M12/M16 A3027 RMK AO2 SNE34 SLP260 P0000 60000 T11221156 53008 FZRANO
PAHL 221416Z AUTO 00000KT 9SM -SN SCT017 OVC043 M12/M16 A3025 RMK AO2 P0000 FZRANO
PAHL 221356Z AUTO 08003KT 9SM -SN OVC017 M12/M16 A3025 RMK AO2 SNB18 SLP255 P0000 T11221156 FZRANO
PAHL 221256Z AUTO 07003KT 9SM FEW004 OVC015 M13/M16 A3024 RMK AO2 SNE03B26E55 SLP252 P0000 T11281156 FZRANO
PAHL 221248Z AUTO 00000KT 9SM -SN SCT004 OVC015 M13/M16 A3025 RMK AO2 SNE03B26 P0000 FZRANO
PAHL 221156Z AUTO 00000KT 10SM -SN OVC004 M13/M16 A3024 RMK AO2 SNB53 SLP252 P0000 60000 T11281161 11122 21133 51007 FZRANO
PAHL 221145Z AUTO 06003KT 10SM OVC004 M13/M16 A3024 RMK AO2 FZRANO
PAHL 221056Z AUTO 00000KT 10SM BKN008 OVC017 M13/M17 A3024 RMK AO2 SNB28E39 SLP250 P0000 T11331167 FZRANO
PAHL 221054Z AUTO 00000KT 10SM BKN008 OVC017 M13/M17 A3024 RMK AO2 SNB28E39 P0000 FZRANO
PAHL 221020Z AUTO 00000KT 10SM SCT008 OVC017 M13/M17 A3022 RMK AO2 FZRANO
PAHL 220956Z AUTO 09003KT 10SM OVC008 M13/M16 A3022 RMK AO2 SLP245 T11331161 FZRANO
PAHL 220944Z AUTO 07003KT 10SM BKN008 OVC035 M13/M17 A3022 RMK AO2 FZRANO
PAHL 220904Z AUTO 06004KT 10SM BKN010 OVC023 M13/M17 A3021 RMK AO2 FZRANO
PAHL 220856Z AUTO 06003KT 10SM SCT010 OVC023 M13/M17 A3021 RMK AO2 SLP241 T11331167 410891144 51016 FZRANO
PAHL 220756Z AUTO 06003KT 10SM OVC025 M13/M17 A3019 RMK AO2 SLP236 T11331167 FZRANO
PAHL 220656Z AUTO 00000KT 10SM OVC025 M12/M17 A3018 RMK AO2 SLP230 T11221167 FZRANO
PAHL 220556Z AUTO 00000KT 10SM OVC023 M12/M17 A3016 RMK AO2 SLP224 T11221167 11089 21122 51015 FZRANO
PAHL 220516Z AUTO 00000KT 10SM BKN028 OVC034 M12/M17 A3015 RMK AO2 FZRANO
PAHL 220456Z AUTO 00000KT 10SM OVC034 M12/M16 A3015 RMK AO2 SLP219 T11221161 FZRANO
PAHL 220356Z AUTO 00000KT 10SM OVC034 M12/M17 A3013 RMK AO2 SLP214 T11221167 FZRANO
PAHL 220256Z AUTO 09003KT 10SM OVC032 M11/M17 A3012 RMK AO2 SLP208 T11111167 51010 FZRANO
PAHL 220156Z AUTO 00000KT 10SM OVC030 M10/M16 A3011 RMK AO2 SLP206 T11001156 FZRANO
PAHL 220056Z AUTO 06004KT 10SM BKN038 OVC055 M10/M16 A3010 RMK AO2 SLP204 T11001161 FZRANO
PAHL 212356Z AUTO 00000KT 10SM SCT034 M12/M17 A3009 RMK AO2 SLP199 60000 T11171172 11089 21144 51012 FZRANO
PAHL 212256Z AUTO 06005KT 10SM SCT060 OVC090 M11/M17 A3009 RMK AO2 SNE01 SLP199 P0000 T11061172 FZRANO
PAHL 212156Z AUTO 08005KT 9SM -SN SCT095 M11/M17 A3007 RMK AO2 SNB51 SLP194 P0000 T11061167 FZRANO
PAHL 212056Z AUTO 08005KT 10SM BKN032 BKN039 OVC048 M11/M17 A3005 RMK AO2 SLP187 T11061167 51018 FZRANO
PAHL 211956Z AUTO 09008KT 10SM BKN110 M12/M17 A3004 RMK AO2 SLP182 T11171167 FZRANO